Time,TemperatureF,DewpointF,PressureIn,WindDirection,WindDirectionDegrees,WindSpeedMPH,WindSpeedGustMPH,Humidity,HourlyPrecipIn,Conditions,Clouds,dailyrainin,SoftwareType,DateUTC
2013-10-08 00:14:00,50.0,44.0,30.06,ENE,70,1.0,7.0,79,0.00,,,1.12,,2013-10-08 04:14:00,
2013-10-08 00:23:00,49.0,43.0,30.06,ENE,59,1.0,5.0,80,0.00,,,1.12,,2013-10-08 04:23:00,
2013-10-08 00:53:00,49.0,43.0,30.06,East,81,0.0,1.0,80,0.00,,,1.12,,2013-10-08 04:53:00,
2013-10-08 01:22:00,47.0,42.0,30.06,East,80,0.0,1.0,83,0.00,,,1.12,,2013-10-08 05:22:00,
2013-10-08 01:53:00,46.0,41.0,30.06,East,80,0.0,0.0,84,0.00,,,1.12,,2013-10-08 05:53:00,
2013-10-08 02:22:00,44.0,40.0,30.06,East,81,0.0,0.0,86,0.00,,,1.12,,2013-10-08 06:22:00,
2013-10-08 02:52:00,44.0,41.0,30.07,East,81,0.0,0.0,89,0.00,,,1.12,,2013-10-08 06:52:00,
2013-10-08 03:21:00,43.0,40.0,30.06,East,81,0.0,0.0,90,0.00,,,1.12,,2013-10-08 07:21:00,
2013-10-08 03:52:00,44.0,42.0,30.08,East,81,0.0,0.0,91,0.00,,,1.08,,2013-10-08 07:52:00,
2013-10-08 04:22:00,45.0,42.0,30.08,NE,55,0.0,0.0,90,0.00,,,1.08,,2013-10-08 08:22:00,
2013-10-08 04:52:00,45.0,41.0,30.09,ENE,75,0.0,5.0,87,0.00,,,0.67,,2013-10-08 08:52:00,
2013-10-08 05:22:00,45.0,41.0,30.09,ENE,74,0.0,0.0,85,0.00,,,0.67,,2013-10-08 09:22:00,
2013-10-08 05:53:00,44.0,40.0,30.10,ENE,75,0.0,5.0,85,0.00,,,0.57,,2013-10-08 09:53:00,
2013-10-08 06:23:00,44.0,40.0,30.12,ENE,64,0.0,0.0,86,0.00,,,0.57,,2013-10-08 10:23:00,
2013-10-08 06:53:00,43.0,39.0,30.13,ENE,64,0.0,0.0,86,0.00,,,0.29,,2013-10-08 10:53:00,
2013-10-08 07:22:00,43.0,39.0,30.14,ENE,64,0.0,0.0,87,0.00,,,0.29,,2013-10-08 11:22:00,
2013-10-08 07:52:00,42.0,38.0,30.15,ENE,64,0.0,0.0,86,0.00,,,0.05,,2013-10-08 11:52:00,
2013-10-08 08:22:00,41.0,38.0,30.16,ENE,64,0.0,0.0,88,0.00,,,0.05,,2013-10-08 12:22:00,
2013-10-08 08:52:00,42.0,39.0,30.18,ENE,64,0.0,0.0,89,0.00,,,0.01,,2013-10-08 12:52:00,
2013-10-08 09:22:00,44.0,41.0,30.19,ENE,64,0.0,0.0,88,0.00,,,0.01,,2013-10-08 13:22:00,
2013-10-08 09:52:00,47.0,42.0,30.20,ENE,64,0.0,0.0,83,0.00,,,0.01,,2013-10-08 13:52:00,
2013-10-08 10:00:00,48.0,43.0,30.21,ENE,64,0.0,0.0,82,0.00,,,0.01,,2013-10-08 14:00:00,
2013-10-08 10:22:00,48.0,43.0,30.21,ENE,64,0.0,0.0,82,0.00,,,0.01,,2013-10-08 14:22:00,
2013-10-08 10:32:00,48.0,43.0,30.21,ENE,64,0.0,0.0,82,0.00,,,0.01,,2013-10-08 14:32:00,
2013-10-08 10:52:00,48.0,43.0,30.21,ENE,64,0.0,0.0,82,0.00,,,0.01,,2013-10-08 14:52:00,